createdAt,value
2018-05-06T00:01:54.379Z,61.44
2018-05-06T00:04:20.251Z,61.58
2018-05-06T00:06:46.167Z,62.15
2018-05-06T00:09:12.060Z,62.13
2018-05-06T00:11:37.987Z,61.99
2018-05-06T00:14:03.866Z,61.79
2018-05-06T00:16:29.819Z,61.73
2018-05-06T00:18:55.761Z,61.53
2018-05-06T00:21:21.660Z,61.84
2018-05-06T00:23:47.550Z,62.10
2018-05-06T00:26:13.468Z,61.88
2018-05-06T00:28:39.404Z,61.78
2018-05-06T00:31:05.318Z,62.14
2018-05-06T00:33:31.236Z,62.20
2018-05-06T00:35:57.119Z,62.00
2018-05-06T00:38:22.999Z,61.95
2018-05-06T00:40:48.901Z,62.18
2018-05-06T00:43:14.791Z,62.18
2018-05-06T00:45:40.664Z,61.88
2018-05-06T00:48:06.555Z,62.37
2018-05-06T00:50:32.479Z,62.24
2018-05-06T00:52:58.365Z,62.17
2018-05-06T00:55:24.355Z,62.43
2018-05-06T00:57:50.245Z,62.39
2018-05-06T01:00:16.142Z,62.43
2018-05-06T01:02:42.018Z,62.40
2018-05-06T01:05:07.929Z,62.50
2018-05-06T01:07:33.856Z,62.62
2018-05-06T01:09:59.756Z,62.81
2018-05-06T01:12:25.667Z,62.87
2018-05-06T01:14:51.956Z,63.23
2018-05-06T01:17:17.903Z,63.25
2018-05-06T01:19:43.794Z,63.27
2018-05-06T01:22:09.720Z,63.01
2018-05-06T01:24:35.654Z,62.97
2018-05-06T01:27:01.572Z,63.17
2018-05-06T01:29:27.433Z,63.31
2018-05-06T01:31:53.400Z,63.47
2018-05-06T01:34:19.241Z,63.36
2018-05-06T01:36:45.153Z,63.29
2018-05-06T01:39:11.053Z,63.64
2018-05-06T01:41:36.999Z,63.55
2018-05-06T01:44:02.941Z,63.66
2018-05-06T01:46:28.872Z,63.66
2018-05-06T01:48:54.765Z,64.16
2018-05-06T01:51:20.656Z,64.19
2018-05-06T01:53:46.574Z,64.20
2018-05-06T01:56:12.485Z,64.83
2018-05-06T01:58:38.363Z,65.09
2018-05-06T02:01:04.298Z,65.07
2018-05-06T02:03:30.205Z,66.08
2018-05-06T02:05:56.115Z,65.97
2018-05-06T02:08:22.027Z,65.74
2018-05-06T02:10:47.951Z,65.99
2018-05-06T02:13:13.797Z,65.25
2018-05-06T02:15:43.686Z,65.21
2018-05-06T02:18:09.583Z,65.14
2018-05-06T02:20:38.650Z,65.46
2018-05-06T02:23:04.543Z,65.08
2018-05-06T02:25:31.740Z,65.14
2018-05-06T02:27:57.639Z,65.19
2018-05-06T02:30:28.408Z,65.38
2018-05-06T02:32:54.268Z,64.90
2018-05-06T02:35:21.011Z,65.21
2018-05-06T02:37:46.925Z,65.12
2018-05-06T02:40:12.813Z,64.95
2018-05-06T02:42:38.703Z,65.80
2018-05-06T02:45:04.592Z,65.87
2018-05-06T02:47:32.913Z,66.42
2018-05-06T02:49:58.863Z,66.45
2018-05-06T02:52:28.269Z,66.93
2018-05-06T02:54:54.200Z,66.46
2018-05-06T02:57:23.198Z,66.38
2018-05-06T02:59:49.183Z,66.34
2018-05-06T03:02:17.232Z,66.14
2018-05-06T03:04:43.069Z,66.54
2018-05-06T03:07:12.572Z,66.54
2018-05-06T03:09:38.471Z,66.25
2018-05-06T03:12:07.863Z,66.03
2018-05-06T03:14:33.787Z,65.50
2018-05-06T03:16:59.685Z,65.62
2018-05-06T03:19:25.646Z,65.83
2018-05-06T03:21:51.552Z,66.08
2018-05-06T03:24:18.257Z,66.42
2018-05-06T03:26:44.141Z,66.40
2018-05-06T03:29:13.812Z,66.25
2018-05-06T03:31:39.748Z,66.17
2018-05-06T03:34:07.616Z,66.15
2018-05-06T03:36:33.519Z,66.23
2018-05-06T03:39:02.647Z,66.60
2018-05-06T03:41:28.542Z,66.93
2018-05-06T03:43:57.479Z,66.85
2018-05-06T03:46:23.395Z,66.83
2018-05-06T03:48:53.283Z,67.09
2018-05-06T03:51:19.185Z,67.09
2018-05-06T03:53:45.071Z,67.24
2018-05-06T03:59:30.214Z,67.20
2018-05-06T04:15:32.512Z,66.69
2018-05-06T04:17:58.403Z,66.47
2018-05-06T04:20:24.264Z,66.44
2018-05-06T04:22:50.172Z,66.21
2018-05-06T04:25:16.020Z,65.72
2018-05-06T04:27:41.940Z,65.35
2018-05-06T04:30:07.887Z,65.62
2018-05-06T04:32:33.855Z,66.09
2018-05-06T04:34:59.791Z,66.25
2018-05-06T04:37:25.693Z,66.23
2018-05-06T04:39:51.612Z,65.91
2018-05-06T04:42:17.508Z,65.48
2018-05-06T04:44:43.418Z,65.30
2018-05-06T04:47:09.311Z,65.28
2018-05-06T04:49:35.257Z,64.85
2018-05-06T04:52:01.136Z,64.79
2018-05-06T04:54:27.056Z,64.87
2018-05-06T04:56:53.025Z,64.66
2018-05-06T04:59:18.917Z,64.15
2018-05-06T05:01:44.814Z,63.44
2018-05-06T05:04:10.699Z,62.80
2018-05-06T05:06:36.618Z,62.61
2018-05-06T05:09:02.563Z,62.42
2018-05-06T05:11:28.439Z,62.24
2018-05-06T05:13:54.354Z,62.51
2018-05-06T05:16:20.313Z,62.61
2018-05-06T05:18:46.122Z,62.18
2018-05-06T05:21:12.029Z,62.00
2018-05-06T05:23:37.894Z,62.06
2018-05-06T05:26:03.817Z,61.81
2018-05-06T05:28:29.711Z,60.97
2018-05-06T05:30:55.555Z,60.50
2018-05-06T05:33:21.444Z,60.31
2018-05-06T05:35:47.352Z,59.74
2018-05-06T05:38:13.254Z,59.55
2018-05-06T05:40:39.166Z,59.52
2018-05-06T05:43:05.081Z,59.31
2018-05-06T05:45:30.977Z,58.67
2018-05-06T05:47:56.938Z,57.64
2018-05-06T05:50:22.771Z,58.49
2018-05-06T05:52:48.659Z,57.84
2018-05-06T05:55:14.557Z,57.46
2018-05-06T05:57:40.483Z,57.83
2018-05-06T06:00:06.385Z,56.43
2018-05-06T06:02:32.263Z,56.21
2018-05-06T06:04:58.132Z,55.82
2018-05-06T06:07:24.063Z,55.54
2018-05-06T06:09:50.045Z,55.88
2018-05-06T06:12:15.863Z,55.41
2018-05-06T06:14:42.515Z,55.49
2018-05-06T06:17:08.455Z,55.36
2018-05-06T06:19:34.353Z,54.94
2018-05-06T06:22:00.215Z,53.55
2018-05-06T06:24:26.188Z,54.17
2018-05-06T06:26:53.646Z,54.65
2018-05-06T06:29:19.556Z,54.76
2018-05-06T06:31:48.740Z,54.38
2018-05-06T06:34:14.648Z,54.60
2018-05-06T06:36:43.760Z,54.37
2018-05-06T06:39:09.647Z,53.10
2018-05-06T06:41:35.571Z,53.08
2018-05-06T06:44:01.484Z,51.94
2018-05-06T06:46:27.407Z,52.11
2018-05-06T06:48:54.920Z,51.72
2018-05-06T06:51:20.845Z,51.23
2018-05-06T06:53:49.896Z,50.39
2018-05-06T06:56:15.817Z,50.61
2018-05-06T06:58:45.043Z,49.14
2018-05-06T07:01:10.997Z,48.36
2018-05-06T07:03:40.438Z,49.07
2018-05-06T07:06:06.335Z,48.50
2018-05-06T07:08:33.589Z,48.97
2018-05-06T07:10:59.458Z,50.04
2018-05-06T07:13:28.676Z,49.14
2018-05-06T07:15:54.587Z,49.48
2018-05-06T07:18:20.502Z,49.14
2018-05-06T07:20:46.350Z,48.91
2018-05-06T07:23:12.240Z,48.37
2018-05-06T07:25:41.656Z,48.04
2018-05-06T07:28:07.543Z,50.53
2018-05-06T07:30:34.707Z,49.15
2018-05-06T07:33:00.575Z,48.12
2018-05-06T07:35:30.199Z,48.04
2018-05-06T07:37:56.066Z,47.35
2018-05-06T07:40:25.539Z,47.01
2018-05-06T07:42:51.436Z,47.20
2018-05-06T07:45:18.887Z,46.44
2018-05-06T07:47:44.758Z,48.83
2018-05-06T07:50:13.760Z,48.70
2018-05-06T07:52:39.617Z,47.85
2018-05-06T07:55:05.509Z,46.08
2018-05-06T07:57:31.420Z,47.37
2018-05-06T07:59:57.331Z,47.42
2018-05-06T08:02:25.539Z,47.08
2018-05-06T08:04:51.439Z,46.50
2018-05-06T08:07:20.872Z,45.93
2018-05-06T08:09:46.759Z,45.56
2018-05-06T08:12:14.867Z,45.77
2018-05-06T08:14:41.451Z,45.33
2018-05-06T08:17:10.924Z,44.58
2018-05-06T08:19:36.816Z,43.51
2018-05-06T08:22:05.877Z,43.79
2018-05-06T08:24:31.777Z,43.67
2018-05-06T08:26:58.788Z,44.45
2018-05-06T08:29:24.693Z,44.09
2018-05-06T08:31:50.618Z,42.89
2018-05-06T08:34:16.548Z,43.60
2018-05-06T08:36:42.439Z,42.61
2018-05-06T08:39:12.184Z,43.61
2018-05-06T08:41:38.063Z,46.53
2018-05-06T08:44:05.443Z,45.62
2018-05-06T08:46:31.361Z,44.56
2018-05-06T08:49:00.331Z,43.08
2018-05-06T08:51:26.269Z,45.50
2018-05-06T08:53:55.543Z,45.42
2018-05-06T08:56:21.448Z,42.61
2018-05-06T08:58:49.486Z,42.03
2018-05-06T09:01:15.381Z,42.62
2018-05-06T09:03:44.944Z,43.99
2018-05-06T09:06:10.888Z,42.31
2018-05-06T09:08:36.791Z,41.70
2018-05-06T09:11:02.764Z,39.93
2018-05-06T09:13:28.661Z,40.12
2018-05-06T09:15:56.347Z,39.31
2018-05-06T09:18:22.228Z,40.07
2018-05-06T09:20:51.566Z,40.27
2018-05-06T09:23:17.463Z,39.79
2018-05-06T09:25:45.435Z,39.47
2018-05-06T09:28:11.308Z,38.99
2018-05-06T09:30:40.556Z,39.44
2018-05-06T09:33:06.440Z,37.97
2018-05-06T09:35:36.416Z,38.64
2018-05-06T09:38:02.292Z,37.02
2018-05-06T09:40:29.412Z,37.24
2018-05-06T09:42:55.358Z,37.42
2018-05-06T09:45:21.277Z,37.79
2018-05-06T09:47:47.302Z,37.84
2018-05-06T09:50:13.087Z,36.71
2018-05-06T09:52:42.932Z,37.45
2018-05-06T09:55:08.869Z,37.75
2018-05-06T09:57:35.835Z,36.93
2018-05-06T10:00:01.747Z,35.66
2018-05-06T10:02:31.647Z,36.14
2018-05-06T10:04:57.559Z,35.61
2018-05-06T10:07:26.701Z,35.59
2018-05-06T10:09:52.623Z,35.73
2018-05-06T10:12:19.812Z,34.57
2018-05-06T10:14:46.890Z,35.05
2018-05-06T10:17:14.847Z,36.09
2018-05-06T10:19:40.736Z,35.89
2018-05-06T10:22:06.673Z,34.86
2018-05-06T10:24:32.548Z,34.08
2018-05-06T10:26:58.409Z,34.10
2018-05-06T10:29:28.134Z,32.96
2018-05-06T10:31:53.979Z,35.35
2018-05-06T10:34:21.177Z,35.57
2018-05-06T10:36:47.096Z,34.63
2018-05-06T10:39:16.695Z,33.18
2018-05-06T10:41:42.608Z,33.62
2018-05-06T10:44:12.000Z,33.12
2018-05-06T10:46:37.886Z,32.30
2018-05-06T10:49:07.072Z,31.92
2018-05-06T10:51:32.966Z,31.92
2018-05-06T10:53:59.922Z,31.31
2018-05-06T10:56:25.834Z,30.66
2018-05-06T10:58:51.756Z,30.86
2018-05-06T11:01:17.690Z,32.04
2018-05-06T11:03:43.594Z,31.82
2018-05-06T11:06:11.525Z,30.65
2018-05-06T11:08:37.437Z,31.33
2018-05-06T11:11:06.332Z,31.93
2018-05-06T11:13:32.239Z,31.59
2018-05-06T11:16:01.017Z,30.97
2018-05-06T11:18:26.913Z,30.05
2018-05-06T11:20:55.527Z,32.08
2018-05-06T11:23:21.467Z,31.35
2018-05-06T11:25:50.255Z,30.01
2018-05-06T11:28:16.138Z,31.42
2018-05-06T11:30:45.123Z,30.78
2018-05-06T11:33:11.012Z,30.79
2018-05-06T11:35:36.918Z,31.05
2018-05-06T11:38:02.804Z,31.00
2018-05-06T11:40:28.716Z,30.12
2018-05-06T11:42:58.475Z,30.20
2018-05-06T11:45:24.409Z,30.45
2018-05-06T11:47:53.422Z,29.25
2018-05-06T11:50:19.347Z,28.94
2018-05-06T11:52:46.982Z,29.04
2018-05-06T11:55:12.890Z,29.12
2018-05-06T11:57:42.191Z,28.87
2018-05-06T12:00:08.106Z,29.37
2018-05-06T12:02:37.545Z,29.03
2018-05-06T12:05:03.500Z,29.10
2018-05-06T12:07:31.147Z,28.43
2018-05-06T12:09:57.053Z,27.96
2018-05-06T12:12:22.966Z,29.34
2018-05-06T12:14:49.310Z,29.45
2018-05-06T12:17:15.204Z,28.16
2018-05-06T12:19:42.131Z,28.33
2018-05-06T12:22:08.027Z,27.73
2018-05-06T12:24:37.343Z,27.05
2018-05-06T12:27:03.247Z,28.10
2018-05-06T12:29:32.151Z,28.65
2018-05-06T12:31:58.102Z,28.18
2018-05-06T12:34:26.858Z,29.54
2018-05-06T12:36:52.781Z,28.26
2018-05-06T12:39:22.019Z,27.49
2018-05-06T12:41:47.933Z,28.08
2018-05-06T12:44:16.117Z,27.28
2018-05-06T12:46:42.090Z,27.75
2018-05-06T12:49:07.964Z,28.00
2018-05-06T12:51:33.900Z,26.92
2018-05-06T12:53:59.788Z,27.52
2018-05-06T12:56:27.708Z,27.29
2018-05-06T12:58:53.590Z,27.57
2018-05-06T13:01:22.678Z,27.29
2018-05-06T13:03:48.573Z,27.38
2018-05-06T13:06:18.176Z,27.74
2018-05-06T13:08:44.129Z,27.54
2018-05-06T13:11:11.755Z,27.26
2018-05-06T13:24:34.854Z,26.01
2018-05-06T13:27:00.748Z,26.79
2018-05-06T13:29:29.609Z,27.15
2018-05-06T13:31:55.529Z,28.10
2018-05-06T13:34:24.189Z,27.42
2018-05-06T13:36:50.118Z,27.92
2018-05-06T13:39:19.181Z,26.74
2018-05-06T13:41:45.076Z,26.34
2018-05-06T13:44:14.967Z,26.08
2018-05-06T13:46:40.853Z,26.05
2018-05-06T13:49:08.258Z,26.85
2018-05-06T13:51:34.207Z,26.24
2018-05-06T13:54:03.423Z,25.98
2018-05-06T13:56:29.349Z,26.14
2018-05-06T13:58:58.108Z,25.35
2018-05-06T14:01:24.098Z,26.56
2018-05-06T14:03:53.932Z,25.52
2018-05-06T14:06:19.814Z,25.77
2018-05-06T14:08:47.095Z,26.08
2018-05-06T14:11:12.983Z,24.86
2018-05-06T14:13:42.801Z,25.13
2018-05-06T14:16:08.711Z,25.04
2018-05-06T14:18:34.653Z,24.41
2018-05-06T14:21:00.572Z,24.73
2018-05-06T14:23:26.430Z,24.54
2018-05-06T14:25:54.084Z,24.20
2018-05-06T14:28:20.003Z,24.09
2018-05-06T14:30:49.813Z,24.15
2018-05-06T14:33:15.683Z,23.36
2018-05-06T14:35:44.682Z,23.81
2018-05-06T14:38:10.581Z,24.17
2018-05-06T14:40:37.648Z,24.14
2018-05-06T14:43:03.582Z,24.86
2018-05-06T14:45:33.351Z,24.14
2018-05-06T14:48:11.695Z,23.77
2018-05-06T14:50:37.636Z,23.77
2018-05-06T14:53:03.544Z,23.05
2018-05-06T14:55:29.402Z,23.40
2018-05-06T14:57:55.271Z,22.87
2018-05-06T15:00:21.182Z,22.63
2018-05-06T15:02:47.092Z,22.68
2018-05-06T15:05:12.949Z,23.85
2018-05-06T15:07:38.885Z,24.21
2018-05-06T15:10:04.787Z,23.51
2018-05-06T15:12:30.699Z,23.69
2018-05-06T15:15:00.648Z,23.74
2018-05-06T15:17:26.573Z,23.65
2018-05-06T15:19:52.520Z,23.55
2018-05-06T15:22:18.508Z,23.56
2018-05-06T15:24:44.358Z,23.66
2018-05-06T15:27:13.706Z,23.05
2018-05-06T15:29:39.586Z,23.51
2018-05-06T15:32:05.494Z,23.04
2018-05-06T15:34:31.399Z,23.16
2018-05-06T15:36:57.312Z,22.57
2018-05-06T15:39:25.044Z,23.20
2018-05-06T15:41:50.951Z,23.24
2018-05-06T15:44:20.118Z,23.06
2018-05-06T15:46:46.061Z,23.06
2018-05-06T15:49:13.689Z,22.86
2018-05-06T15:51:39.623Z,22.61
2018-05-06T15:54:08.674Z,22.85
2018-05-06T15:56:34.604Z,23.01
2018-05-06T15:59:03.090Z,22.50
2018-05-06T16:01:29.008Z,22.85
2018-05-06T16:04:10.386Z,22.82
2018-05-06T16:06:36.340Z,22.48
2018-05-06T16:09:02.246Z,21.86
2018-05-06T16:11:28.163Z,22.64
2018-05-06T16:13:54.087Z,23.29
2018-05-06T16:16:19.958Z,22.98
2018-05-06T16:18:45.876Z,23.02
2018-05-06T16:21:11.802Z,23.29
2018-05-06T16:23:37.742Z,23.19
2018-05-06T16:26:03.659Z,23.55
2018-05-06T16:28:29.525Z,23.76
2018-05-06T16:30:55.431Z,24.09
2018-05-06T16:33:21.315Z,24.05
2018-05-06T16:35:48.233Z,24.21
2018-05-06T16:38:14.135Z,24.41
2018-05-06T16:40:43.046Z,24.62
2018-05-06T16:43:08.937Z,24.37
2018-05-06T16:45:34.848Z,24.12
2018-05-06T16:48:00.760Z,24.17
2018-05-06T16:50:26.638Z,23.70
2018-05-06T16:52:56.421Z,24.35
2018-05-06T16:55:22.297Z,24.47
2018-05-06T16:57:51.511Z,24.61
2018-05-06T17:00:17.437Z,25.09
2018-05-06T17:02:44.367Z,25.01
2018-05-06T17:05:10.258Z,25.33
2018-05-06T17:07:39.207Z,25.53
2018-05-06T17:10:05.085Z,24.96
2018-05-06T17:12:34.123Z,24.96
2018-05-06T17:15:00.892Z,25.20
2018-05-06T17:17:29.900Z,25.97
2018-05-06T17:19:55.794Z,26.37
2018-05-06T17:22:21.738Z,26.54
2018-05-06T17:24:47.626Z,27.08
2018-05-06T17:27:13.518Z,27.33
2018-05-06T17:29:40.066Z,27.34
2018-05-06T17:32:05.980Z,28.07
2018-05-06T17:34:34.880Z,27.96
2018-05-06T17:37:00.763Z,28.00
2018-05-06T17:39:30.625Z,29.00
2018-05-06T17:41:56.522Z,28.42
2018-05-06T17:44:24.235Z,28.83
2018-05-06T17:46:50.165Z,29.11
2018-05-06T17:49:18.868Z,28.99
2018-05-06T17:51:44.755Z,29.07
2018-05-06T17:54:13.437Z,29.58
2018-05-06T17:56:39.386Z,29.73
2018-05-06T17:59:05.289Z,29.63
2018-05-06T18:01:31.207Z,29.67
2018-05-06T18:03:57.119Z,30.16
2018-05-06T18:06:26.160Z,31.03
2018-05-06T18:08:52.067Z,31.18
2018-05-06T18:11:22.357Z,31.39
2018-05-06T18:13:48.237Z,31.56
2018-05-06T18:16:14.772Z,31.35
2018-05-06T18:18:40.659Z,31.47
2018-05-06T18:21:09.294Z,31.50
2018-05-06T18:23:35.220Z,31.14
2018-05-06T18:26:04.295Z,31.38
2018-05-06T18:28:30.203Z,31.71
2018-05-06T18:30:59.091Z,31.22
2018-05-06T18:33:24.948Z,31.40
2018-05-06T18:35:50.797Z,31.65
2018-05-06T18:38:16.699Z,31.61
2018-05-06T18:40:42.604Z,31.54
2018-05-06T18:43:11.822Z,31.85
2018-05-06T18:45:37.711Z,31.21
2018-05-06T18:48:05.382Z,31.62
2018-05-06T18:50:31.295Z,31.11
2018-05-06T18:53:00.042Z,31.15
2018-05-06T18:55:25.938Z,30.84
2018-05-06T18:57:54.872Z,31.42
2018-05-06T19:00:20.718Z,31.73
2018-05-06T19:02:49.358Z,31.49
2018-05-06T19:05:15.286Z,31.30
2018-05-06T19:07:44.819Z,31.45
2018-05-06T19:10:10.750Z,31.48
2018-05-06T19:12:36.690Z,31.63
2018-05-06T19:15:02.614Z,31.58
2018-05-06T19:17:28.504Z,31.87
2018-05-06T19:19:57.734Z,31.81
2018-05-06T19:22:23.583Z,31.81
2018-05-06T19:24:50.626Z,31.54
2018-05-06T19:27:16.490Z,31.45
2018-05-06T19:29:45.618Z,31.66
2018-05-06T19:32:11.478Z,31.43
2018-05-06T19:34:40.968Z,31.49
2018-05-06T19:37:06.920Z,31.63
2018-05-06T19:39:34.721Z,31.26
2018-05-06T19:42:00.588Z,31.29
2018-05-06T19:44:29.733Z,31.30
2018-05-06T19:46:55.643Z,31.52
2018-05-06T19:49:21.552Z,31.55
2018-05-06T19:51:47.431Z,31.27
2018-05-06T19:54:13.340Z,31.73
2018-05-06T19:56:41.168Z,31.80
2018-05-06T19:59:07.138Z,32.10
2018-05-06T20:01:39.852Z,31.89
2018-05-06T20:04:05.783Z,32.11
2018-05-06T20:06:31.703Z,32.07
2018-05-06T20:08:57.574Z,32.48
2018-05-06T20:11:27.324Z,32.54
2018-05-06T20:13:53.259Z,32.78
2018-05-06T20:16:21.088Z,33.20
2018-05-06T20:18:46.959Z,33.22
2018-05-06T20:21:16.714Z,33.04
2018-05-06T20:23:42.604Z,33.37
2018-05-06T20:26:08.498Z,33.13
2018-05-06T20:28:34.364Z,33.11
2018-05-06T20:31:00.280Z,33.67
2018-05-06T20:33:26.808Z,33.91
2018-05-06T20:35:52.679Z,33.95
2018-05-06T20:38:21.249Z,34.16
2018-05-06T20:40:47.192Z,34.11
2018-05-06T20:43:16.030Z,33.87
2018-05-06T20:45:41.913Z,34.00
2018-05-06T20:48:10.540Z,34.50
2018-05-06T20:50:36.378Z,34.47
2018-05-06T20:53:05.213Z,34.35
2018-05-06T20:55:31.198Z,34.49
2018-05-06T20:57:59.905Z,34.27
2018-05-06T21:00:25.752Z,35.06
2018-05-06T21:02:51.646Z,35.43
2018-05-06T21:05:17.513Z,35.52
2018-05-06T21:07:43.383Z,35.71
2018-05-06T21:10:12.574Z,35.37
2018-05-06T21:12:41.971Z,34.87
2018-05-06T21:15:07.837Z,35.81
2018-05-06T21:17:33.733Z,35.09
2018-05-06T21:20:02.939Z,34.92
2018-05-06T21:22:28.781Z,35.16
2018-05-06T21:24:56.043Z,35.39
2018-05-06T21:27:21.888Z,35.45
2018-05-06T21:29:51.043Z,35.64
2018-05-06T21:32:16.913Z,36.27
2018-05-06T21:34:45.961Z,35.90
2018-05-06T21:37:11.835Z,35.77
2018-05-06T21:39:37.743Z,35.65
2018-05-06T21:42:03.550Z,35.78
2018-05-06T21:44:29.391Z,35.77
2018-05-06T21:46:57.140Z,35.82
2018-05-06T21:49:22.965Z,35.66
2018-05-06T21:54:23.548Z,35.71
2018-05-06T21:56:49.396Z,35.77
2018-05-06T21:59:15.245Z,35.86
2018-05-06T22:01:41.573Z,35.66
2018-05-06T22:04:07.422Z,35.54
2018-05-06T22:06:37.274Z,35.45
2018-05-06T22:09:03.224Z,35.64
2018-05-06T22:11:30.982Z,36.00
2018-05-06T22:13:56.909Z,35.82
2018-05-06T22:16:22.741Z,35.86
2018-05-06T22:18:48.597Z,35.97
2018-05-06T22:21:14.418Z,36.47
2018-05-06T22:23:43.579Z,36.40
2018-05-06T22:26:09.422Z,36.51
2018-05-06T22:28:37.466Z,36.62
2018-05-06T22:31:03.346Z,36.52
2018-05-06T22:33:32.542Z,36.56
2018-05-06T22:35:58.373Z,36.48
2018-05-06T22:38:27.502Z,36.58
2018-05-06T22:40:53.337Z,36.62
2018-05-06T22:43:22.557Z,36.67
2018-05-06T22:45:48.438Z,37.00
2018-05-06T22:48:17.638Z,36.89
2018-05-06T22:50:49.769Z,36.77
2018-05-06T22:53:15.607Z,36.96
2018-05-06T22:55:41.456Z,37.22
2018-05-06T22:58:07.354Z,38.35
2018-05-06T23:00:33.235Z,39.03
2018-05-06T23:02:59.068Z,40.59
2018-05-06T23:05:24.901Z,43.30
2018-05-06T23:07:50.785Z,44.73
2018-05-06T23:10:17.844Z,45.78
2018-05-06T23:12:43.703Z,45.72
2018-05-06T23:15:13.018Z,44.60
2018-05-06T23:17:38.852Z,44.35
2018-05-06T23:20:07.839Z,46.74
2018-05-06T23:22:33.713Z,47.59
2018-05-06T23:25:02.848Z,48.18
2018-05-06T23:27:28.697Z,48.04
2018-05-06T23:29:54.615Z,47.00
2018-05-06T23:32:20.492Z,46.94
2018-05-06T23:34:46.355Z,46.49
2018-05-06T23:37:12.998Z,46.05
2018-05-06T23:39:38.892Z,45.31
2018-05-06T23:42:11.569Z,44.94
2018-05-06T23:44:37.429Z,44.87
2018-05-06T23:47:03.300Z,43.92
2018-05-06T23:49:29.179Z,44.09
2018-05-06T23:51:58.247Z,43.75
2018-05-06T23:54:24.088Z,44.28
2018-05-06T23:56:52.170Z,44.47
2018-05-06T23:59:18.045Z,44.24
